Time;durP1;ratioP1;P1;durP2;ratioP2;P2;SDS_P1;SDS_P2;PMS_P1;PMS_P2;Temp;Humidity;BMP_temperature;BMP_pressure;BME280_temperature;BME280_humidity;BME280_pressure;Samples;Min_cycle;Max_cycle;Signal;HPM_P1;HPM_P2
2022/06/12 00:01:04;;;;;;;0.57;0.30;;;12.30;99.90;;;;;;5044246;28;20566;-69
2022/06/12 00:03:33;;;;;;;1.05;0.38;;;12.40;99.90;;;;;;5041109;28;20036;-69
2022/06/12 00:06:00;;;;;;;0.30;0.20;;;12.40;99.90;;;;;;5042597;28;20111;-69
2022/06/12 00:08:29;;;;;;;0.75;0.50;;;12.40;99.90;;;;;;5044312;28;20032;-69
2022/06/12 00:10:57;;;;;;;0.70;0.30;;;12.40;99.90;;;;;;5042121;28;20033;-69
2022/06/12 00:13:30;;;;;;;0.60;0.25;;;12.40;99.90;;;;;;5049845;28;20040;-68
2022/06/12 00:15:56;;;;;;;0.68;0.30;;;12.40;99.90;;;;;;5037674;28;20029;-69
2022/06/12 00:18:22;;;;;;;0.20;0.20;;;12.40;99.90;;;;;;5041699;28;20049;-68
2022/06/12 00:20:48;;;;;;;0.50;0.20;;;12.30;99.90;;;;;;5040552;28;20022;-70
2022/06/12 00:23:16;;;;;;;0.75;0.43;;;12.40;99.90;;;;;;5046117;28;20017;-68
2022/06/12 00:25:42;;;;;;;0.57;0.40;;;12.40;99.90;;;;;;5043727;28;20020;-69
2022/06/12 00:28:09;;;;;;;0.63;0.35;;;12.50;99.90;;;;;;5044604;28;20024;-68
2022/06/12 00:30:35;;;;;;;0.57;0.40;;;12.40;99.90;;;;;;5047696;28;20045;-68
2022/06/12 00:33:00;;;;;;;0.35;0.20;;;12.40;99.90;;;;;;5054784;28;20097;-69
2022/06/12 00:35:32;;;;;;;0.47;0.28;;;12.30;99.90;;;;;;5048312;28;20515;-68
2022/06/12 00:37:58;;;;;;;0.75;0.30;;;12.30;99.90;;;;;;5043841;28;20100;-69
2022/06/12 00:40:24;;;;;;;0.93;0.30;;;12.20;99.90;;;;;;5044638;28;20057;-70
2022/06/12 00:42:53;;;;;;;0.52;0.30;;;12.30;99.90;;;;;;5041406;28;20938;-69
2022/06/12 00:45:38;;;;;;;1.50;0.80;;;12.20;99.90;;;;;;5040159;28;20502;-69
2022/06/12 00:48:25;;;;;;;0.20;0.20;;;12.20;99.90;;;;;;5040904;28;20097;-68
2022/06/12 00:50:59;;;;;;;0.60;0.25;;;12.10;99.90;;;;;;5041839;28;20051;-69
2022/06/12 00:53:35;;;;;;;0.20;0.20;;;12.10;99.90;;;;;;5051617;28;20021;-68
2022/06/12 00:56:21;;;;;;;0.50;0.30;;;12.10;99.90;;;;;;5043012;28;20083;-69
2022/06/12 00:58:52;;;;;;;0.57;0.30;;;12.10;99.90;;;;;;5042234;28;20499;-68
2022/06/12 01:01:24;;;;;;;0.47;0.30;;;12.10;99.90;;;;;;5047034;28;20618;-68
2022/06/12 01:06:36;;;;;;;0.15;0.15;;;12.10;99.90;;;;;;5042316;28;20029;-67
2022/06/12 01:09:11;;;;;;;0.68;0.30;;;12.00;99.90;;;;;;5042462;28;20041;-67
2022/06/12 01:11:38;;;;;;;1.35;0.38;;;12.00;99.90;;;;;;5039975;28;21287;-67
2022/06/12 01:14:07;;;;;;;0.68;0.30;;;12.00;99.90;;;;;;5035835;28;20052;-67
2022/06/12 01:16:34;;;;;;;0.80;0.30;;;12.00;99.90;;;;;;5039081;28;20025;-69
2022/06/12 01:19:01;;;;;;;1.05;0.35;;;12.00;99.90;;;;;;5038988;28;20041;-67
2022/06/12 01:21:52;;;;;;;1.08;0.55;;;12.00;99.90;;;;;;5040299;28;20037;-68
2022/06/12 01:24:40;;;;;;;0.30;0.20;;;11.90;99.90;;;;;;5041857;28;20025;-67
2022/06/12 01:27:17;;;;;;;0.20;0.20;;;11.90;99.90;;;;;;5043499;28;20026;-69
2022/06/12 01:29:43;;;;;;;0.20;0.20;;;11.90;99.90;;;;;;5039883;28;20045;-68
2022/06/12 01:32:18;;;;;;;0.47;0.30;;;11.80;99.90;;;;;;5041747;28;20033;-67
2022/06/12 01:34:50;;;;;;;0.40;0.20;;;11.80;99.90;;;;;;5038927;28;20473;-67
2022/06/12 01:37:34;;;;;;;;;;;11.80;99.90;;;;;;5038442;28;20060;-67
2022/06/12 01:40:21;;;;;;;0.38;0.20;;;11.80;99.90;;;;;;5043325;28;19985;-68
2022/06/12 01:43:14;;;;;;;0.28;0.20;;;11.70;99.90;;;;;;5040661;28;20052;-67
2022/06/12 01:46:03;;;;;;;0.20;0.20;;;11.60;99.90;;;;;;5044059;28;20035;-68
2022/06/12 01:48:52;;;;;;;0.30;0.20;;;11.60;99.90;;;;;;5042080;28;20029;-68
2022/06/12 01:51:24;;;;;;;0.20;0.20;;;11.70;99.90;;;;;;5032648;28;20060;-67
2022/06/12 01:54:16;;;;;;;0.65;0.30;;;11.60;99.90;;;;;;5040432;28;20401;-68
2022/06/12 01:56:49;;;;;;;0.38;0.22;;;11.60;99.90;;;;;;5038465;28;20116;-67
2022/06/12 01:59:26;;;;;;;0.57;0.28;;;11.60;99.90;;;;;;5043980;28;20471;-68
2022/06/12 02:02:01;;;;;;;0.57;0.30;;;11.60;99.90;;;;;;5043523;28;20048;-67
2022/06/12 02:04:38;;;;;;;2.10;0.52;;;11.50;99.90;;;;;;5045936;28;20078;-67
2022/06/12 02:07:18;;;;;;;0.57;0.45;;;11.50;99.90;;;;;;5046276;28;20033;-68
2022/06/12 02:10:18;;;;;;;0.70;0.52;;;11.50;99.90;;;;;;5041701;28;20032;-67
2022/06/12 02:15:56;;;;;;;1.48;0.40;;;11.50;99.90;;;;;;5031301;28;20029;-67
2022/06/12 02:18:41;;;;;;;0.52;0.20;;;11.50;99.90;;;;;;5040157;28;20070;-68
2022/06/12 02:21:34;;;;;;;0.20;0.20;;;11.50;99.90;;;;;;5041938;28;20044;-68
2022/06/12 02:24:25;;;;;;;0.77;0.30;;;11.40;99.90;;;;;;5040698;28;20044;-68
2022/06/12 02:26:58;;;;;;;0.28;0.20;;;11.40;99.90;;;;;;5031690;28;20566;-69
2022/06/12 02:29:36;;;;;;;0.65;0.30;;;11.40;99.90;;;;;;5037110;28;20049;-68
2022/06/12 02:32:09;;;;;;;0.90;0.52;;;11.50;99.90;;;;;;5046255;28;20018;-69
2022/06/12 02:34:39;;;;;;;0.30;0.20;;;11.50;99.90;;;;;;5037670;28;20039;-67
2022/06/12 02:37:23;;;;;;;0.90;0.38;;;11.50;99.90;;;;;;5040360;28;20021;-70
2022/06/12 02:39:56;;;;;;;0.20;0.20;;;11.50;99.90;;;;;;5033687;28;20033;-69
2022/06/12 02:42:26;;;;;;;1.73;0.77;;;11.50;99.90;;;;;;5035400;28;21288;-69
2022/06/12 02:44:59;;;;;;;0.38;0.20;;;11.50;99.90;;;;;;5035537;28;20466;-70
2022/06/12 02:47:30;;;;;;;0.47;0.30;;;11.50;99.90;;;;;;5036752;28;20045;-69
2022/06/12 02:49:57;;;;;;;0.20;0.20;;;11.50;99.90;;;;;;5035108;28;20064;-69
2022/06/12 02:52:42;;;;;;;0.95;0.30;;;11.50;99.90;;;;;;5039789;28;20540;-69
2022/06/12 02:55:32;;;;;;;0.43;0.20;;;11.50;99.90;;;;;;5038873;28;20826;-69
2022/06/12 02:58:13;;;;;;;0.60;0.30;;;11.50;99.90;;;;;;5038624;28;20033;-69
2022/06/12 03:00:41;;;;;;;0.50;0.25;;;11.50;99.90;;;;;;5039593;28;20071;-69
2022/06/12 03:03:13;;;;;;;0.47;0.30;;;11.50;99.90;;;;;;5039235;28;20029;-69
2022/06/12 03:05:42;;;;;;;0.22;0.22;;;11.50;99.90;;;;;;5036440;28;20025;-69
2022/06/12 03:08:25;;;;;;;0.90;0.40;;;11.50;99.90;;;;;;5038600;28;20108;-68
2022/06/12 03:11:13;;;;;;;0.85;0.30;;;11.50;99.90;;;;;;5037193;28;20105;-69
2022/06/12 03:13:39;;;;;;;1.17;0.40;;;11.50;99.90;;;;;;5035943;28;20029;-68
2022/06/12 03:16:18;;;;;;;0.20;0.20;;;11.50;99.90;;;;;;5030052;28;20025;-69
2022/06/12 03:18:51;;;;;;;0.22;0.20;;;11.50;99.90;;;;;;5046100;28;20041;-69
2022/06/12 03:21:24;;;;;;;0.75;0.30;;;11.50;99.90;;;;;;5034553;28;20029;-69
2022/06/12 03:23:53;;;;;;;0.40;0.20;;;11.50;99.90;;;;;;5036413;28;20029;-69
2022/06/12 03:26:49;;;;;;;0.95;0.43;;;11.50;99.90;;;;;;5036648;28;20037;-69
2022/06/12 03:29:33;;;;;;;0.88;0.45;;;11.50;99.90;;;;;;5036160;28;20049;-68
2022/06/12 03:32:29;;;;;;;1.08;0.30;;;11.50;99.90;;;;;;5040186;28;20481;-69
2022/06/12 03:34:55;;;;;;;0.57;0.30;;;11.50;99.90;;;;;;5034198;28;20091;-68
2022/06/12 03:37:33;;;;;;;0.28;0.20;;;11.50;99.90;;;;;;5035822;28;20383;-69
2022/06/12 03:40:20;;;;;;;0.77;0.30;;;11.60;99.90;;;;;;5036485;28;20113;-69
2022/06/12 03:42:56;;;;;;;0.63;0.30;;;11.60;99.90;;;;;;5042953;28;20132;-70
2022/06/12 03:45:37;;;;;;;0.20;0.20;;;11.60;99.90;;;;;;5041230;28;20072;-69
2022/06/12 03:48:12;;;;;;;0.57;0.38;;;11.60;99.90;;;;;;5041716;28;20045;-69
2022/06/12 03:50:37;;;;;;;0.68;0.30;;;11.70;99.90;;;;;;5033420;28;20081;-69
2022/06/12 03:53:06;;;;;;;0.30;0.20;;;11.70;99.90;;;;;;5041963;28;20107;-69
2022/06/12 03:58:33;;;;;;;0.68;0.30;;;11.70;99.90;;;;;;5035587;28;20052;-68
2022/06/12 04:01:01;;;;;;;0.28;0.20;;;11.80;99.90;;;;;;5057993;28;20089;-68
2022/06/12 04:03:34;;;;;;;0.55;0.30;;;11.70;99.90;;;;;;5043448;28;20029;-68
2022/06/12 04:06:04;;;;;;;0.20;0.20;;;11.80;99.90;;;;;;5032039;28;20025;-68
2022/06/12 04:08:38;;;;;;;0.68;0.30;;;11.80;99.90;;;;;;5036132;28;20033;-68
2022/06/12 04:11:06;;;;;;;0.38;0.20;;;11.90;99.90;;;;;;5038153;28;20090;-68
2022/06/12 04:13:37;;;;;;;0.38;0.28;;;11.90;99.90;;;;;;5037425;28;20056;-69
2022/06/12 04:16:24;;;;;;;0.28;0.20;;;11.90;99.90;;;;;;5037285;28;20155;-68
2022/06/12 04:18:50;;;;;;;0.32;0.20;;;11.90;99.90;;;;;;5040267;28;20037;-68
2022/06/12 04:21:28;;;;;;;0.90;0.40;;;11.90;99.90;;;;;;5038433;28;20090;-68
2022/06/12 04:24:19;;;;;;;0.52;0.30;;;11.90;99.90;;;;;;5040160;28;20037;-69
2022/06/12 04:27:15;;;;;;;1.08;0.63;;;12.00;99.90;;;;;;5040597;28;20082;-68
2022/06/12 04:29:55;;;;;;;1.00;0.40;;;12.10;99.90;;;;;;5036848;28;20053;-68
2022/06/12 04:32:21;;;;;;;0.20;0.20;;;12.20;99.90;;;;;;5050683;28;20048;-69
2022/06/12 04:34:47;;;;;;;0.60;0.35;;;12.30;99.90;;;;;;5041386;28;20021;-68
2022/06/12 04:37:21;;;;;;;0.20;0.20;;;12.30;99.90;;;;;;5036294;28;20044;-68
2022/06/12 04:39:48;;;;;;;0.50;0.30;;;12.40;99.90;;;;;;5045756;28;20053;-69
2022/06/12 04:42:16;;;;;;;0.90;0.50;;;12.40;99.90;;;;;;5048577;28;20029;-68
2022/06/12 04:44:43;;;;;;;0.90;0.50;;;12.50;99.90;;;;;;5039341;28;20515;-68
2022/06/12 04:47:12;;;;;;;0.57;0.20;;;12.60;99.90;;;;;;5037453;28;20053;-68
2022/06/12 04:49:38;;;;;;;0.28;0.20;;;12.60;99.90;;;;;;5042515;28;20025;-69
2022/06/12 04:52:08;;;;;;;0.35;0.20;;;12.70;99.90;;;;;;5040609;28;20037;-69
2022/06/12 04:54:35;;;;;;;0.80;0.52;;;12.80;99.90;;;;;;5039692;28;20028;-68
2022/06/12 04:57:01;;;;;;;0.63;0.32;;;12.90;99.90;;;;;;5029387;28;20408;-69
2022/06/12 04:59:27;;;;;;;0.65;0.30;;;13.10;99.90;;;;;;5039700;28;20104;-68
2022/06/12 05:01:53;;;;;;;0.73;0.30;;;13.10;99.90;;;;;;5038337;28;20148;-68
2022/06/12 05:04:23;;;;;;;0.55;0.30;;;13.20;99.90;;;;;;5039578;28;20052;-68
2022/06/12 05:06:51;;;;;;;1.30;0.50;;;13.40;99.90;;;;;;5044784;28;20033;-69
2022/06/12 05:09:21;;;;;;;0.75;0.30;;;13.50;99.90;;;;;;5044309;28;20164;-69
2022/06/12 05:11:47;;;;;;;0.85;0.32;;;13.60;99.90;;;;;;5051123;28;20023;-69
2022/06/12 05:14:12;;;;;;;1.08;0.45;;;13.70;99.90;;;;;;5045024;28;20022;-68
2022/06/12 05:17:05;;;;;;;0.20;0.20;;;13.80;99.90;;;;;;5039152;28;20471;-68
2022/06/12 05:19:35;;;;;;;0.63;0.30;;;13.90;99.90;;;;;;5031589;28;20091;-68
2022/06/12 05:22:02;;;;;;;0.40;0.20;;;14.10;99.90;;;;;;5042060;28;20087;-68
2022/06/12 05:24:28;;;;;;;0.22;0.20;;;14.20;99.90;;;;;;5039436;28;20060;-68
2022/06/12 05:26:54;;;;;;;0.55;0.30;;;14.40;99.90;;;;;;5042897;28;20037;-69
2022/06/12 05:29:29;;;;;;;0.60;0.28;;;14.50;99.90;;;;;;5039108;28;20057;-69
2022/06/12 05:31:56;;;;;;;0.73;0.50;;;14.60;99.90;;;;;;5043535;28;20029;-69
2022/06/12 05:34:22;;;;;;;0.25;0.20;;;14.80;99.90;;;;;;5042860;28;20013;-69
2022/06/12 05:36:49;;;;;;;0.47;0.25;;;15.00;99.90;;;;;;5041499;28;20029;-69
2022/06/12 05:39:15;;;;;;;0.30;0.20;;;15.20;99.90;;;;;;5042466;28;20040;-69
2022/06/12 05:41:40;;;;;;;0.68;0.25;;;15.40;99.90;;;;;;5042130;28;20067;-69
2022/06/12 05:44:07;;;;;;;0.30;0.10;;;15.70;99.90;;;;;;5044813;28;20021;-69
2022/06/12 05:46:32;;;;;;;1.23;0.57;;;15.90;99.90;;;;;;5047781;28;20017;-69
2022/06/12 05:48:58;;;;;;;0.50;0.20;;;16.10;99.90;;;;;;5041660;28;20731;-68
2022/06/12 05:51:24;;;;;;;0.30;0.17;;;16.20;99.90;;;;;;5037391;28;20036;-67
2022/06/12 05:53:50;;;;;;;0.77;0.20;;;16.40;99.90;;;;;;5045645;28;20033;-68
2022/06/12 05:56:19;;;;;;;0.80;0.30;;;16.30;99.90;;;;;;5041547;28;20028;-67
2022/06/12 05:58:45;;;;;;;1.25;0.40;;;16.30;99.90;;;;;;5040275;28;20538;-69
2022/06/12 06:01:14;;;;;;;0.85;0.30;;;16.20;99.90;;;;;;5046134;28;20029;-68
2022/06/12 06:03:40;;;;;;;0.52;0.30;;;16.50;99.90;;;;;;5035639;28;20054;-68
2022/06/12 06:06:08;;;;;;;0.28;0.20;;;16.80;99.90;;;;;;5035611;28;20025;-68
2022/06/12 06:08:33;;;;;;;1.45;0.73;;;16.90;99.90;;;;;;5042629;28;20026;-68
2022/06/12 06:10:59;;;;;;;0.47;0.20;;;17.10;99.90;;;;;;5036523;28;20103;-68
2022/06/12 06:13:25;;;;;;;0.70;0.22;;;17.30;99.90;;;;;;5048982;28;20021;-68
2022/06/12 06:15:50;;;;;;;1.17;0.52;;;17.80;99.90;;;;;;5036725;28;20047;-68
2022/06/12 06:18:17;;;;;;;0.47;0.20;;;17.50;99.90;;;;;;5047407;28;20056;-68
2022/06/12 06:20:43;;;;;;;1.35;1.05;;;17.90;99.90;;;;;;5046414;28;20025;-67
2022/06/12 06:23:09;;;;;;;0.65;0.43;;;17.90;99.90;;;;;;5053530;28;20133;-68
2022/06/12 06:25:36;;;;;;;0.43;0.13;;;18.30;99.90;;;;;;5040654;28;20021;-69
2022/06/12 06:28:03;;;;;;;0.40;0.28;;;18.50;99.90;;;;;;5046654;28;20041;-69
2022/06/12 06:30:29;;;;;;;0.47;0.17;;;18.80;99.90;;;;;;5046719;28;20077;-68
2022/06/12 06:32:56;;;;;;;0.60;0.22;;;18.80;99.90;;;;;;5039361;28;20036;-69
2022/06/12 06:35:23;;;;;;;0.60;0.40;;;18.80;99.90;;;;;;5033119;28;20063;-68
2022/06/12 06:37:49;;;;;;;0.40;0.20;;;19.00;99.90;;;;;;5032784;28;20022;-67
2022/06/12 06:40:16;;;;;;;0.10;0.10;;;19.20;99.90;;;;;;5040413;28;20103;-67
2022/06/12 06:42:42;;;;;;;0.45;0.15;;;19.60;99.90;;;;;;5037024;28;20607;-68
2022/06/12 06:47:54;;;;;;;0.17;0.15;;;19.80;99.90;;;;;;5036385;28;20040;-70
2022/06/12 06:50:21;;;;;;;0.20;0.10;;;19.70;99.90;;;;;;5030112;28;20029;-70
2022/06/12 06:52:47;;;;;;;0.10;0.10;;;20.20;99.90;;;;;;5038809;28;20500;-70
2022/06/12 06:55:13;;;;;;;0.10;0.10;;;20.50;99.90;;;;;;5040572;28;20028;-70
2022/06/12 06:57:43;;;;;;;0.10;0.10;;;20.50;99.90;;;;;;5039758;28;20044;-71
2022/06/12 07:00:10;;;;;;;3.53;0.30;;;20.60;99.90;;;;;;5038358;28;20041;-71
2022/06/12 07:02:36;;;;;;;0.10;0.10;;;20.90;99.90;;;;;;5045277;28;20078;-70
2022/06/12 07:05:02;;;;;;;0.10;0.10;;;21.00;99.90;;;;;;5043378;28;20400;-71
2022/06/12 07:07:28;;;;;;;0.03;0.03;;;21.60;99.90;;;;;;5042639;28;20158;-70
2022/06/12 07:09:54;;;;;;;0.10;0.10;;;21.60;99.90;;;;;;5040651;28;20029;-71
2022/06/12 07:12:19;;;;;;;1.05;0.20;;;21.70;99.90;;;;;;5037690;28;20036;-71
2022/06/12 07:14:45;;;;;;;0.10;0.10;;;21.50;99.90;;;;;;5039016;28;20110;-75
2022/06/12 07:17:11;;;;;;;0.10;0.10;;;22.10;99.90;;;;;;5039933;28;20120;-76
2022/06/12 07:19:38;;;;;;;0.17;0.10;;;22.00;99.90;;;;;;5036796;28;20045;-77
2022/06/12 07:22:04;;;;;;;0.10;0.10;;;22.40;99.90;;;;;;5037104;28;20032;-82
2022/06/12 07:24:30;;;;;;;0.10;0.10;;;22.70;99.90;;;;;;5036882;28;20163;-81
2022/06/12 07:26:56;;;;;;;0.10;0.10;;;22.90;99.90;;;;;;5011965;28;20037;-82
2022/06/12 07:29:22;;;;;;;0.17;0.10;;;22.70;99.90;;;;;;5036224;28;20059;-82
2022/06/12 07:31:49;;;;;;;0.10;0.10;;;22.90;99.90;;;;;;4999974;28;20029;-76
2022/06/12 07:34:15;;;;;;;0.00;0.00;;;23.30;99.90;;;;;;5048994;28;20040;-78
2022/06/12 07:36:44;;;;;;;0.10;0.10;;;23.30;99.90;;;;;;5035522;28;20964;-78
2022/06/12 07:39:14;;;;;;;0.00;0.00;;;23.30;99.90;;;;;;5054608;28;20053;-71
2022/06/12 07:41:39;;;;;;;0.05;0.05;;;23.50;99.90;;;;;;5043794;28;20013;-76
2022/06/12 07:44:06;;;;;;;0.00;0.00;;;23.90;99.90;;;;;;5040238;28;20044;-76
2022/06/12 07:46:32;;;;;;;0.20;0.10;;;23.60;99.90;;;;;;5013085;28;20029;-76
2022/06/12 07:48:58;;;;;;;0.00;0.00;;;23.70;99.90;;;;;;5022617;28;20030;-76
2022/06/12 07:51:25;;;;;;;0.00;0.00;;;23.20;99.90;;;;;;5024189;28;20084;-75
2022/06/12 07:53:52;;;;;;;0.00;0.00;;;22.80;99.90;;;;;;5031841;28;20041;-76
2022/06/12 07:56:19;;;;;;;0.10;0.03;;;23.00;99.90;;;;;;5015393;28;20233;-76
2022/06/12 07:58:45;;;;;;;0.08;0.00;;;23.90;99.90;;;;;;5040459;28;20033;-75
2022/06/12 08:01:17;;;;;;;0.00;0.00;;;23.80;99.90;;;;;;5031582;28;20036;-77
2022/06/12 08:03:43;;;;;;;0.00;0.00;;;23.30;99.90;;;;;;5043580;28;20025;-77
2022/06/12 08:06:10;;;;;;;0.00;0.00;;;23.70;99.90;;;;;;5047611;28;20053;-76
2022/06/12 08:08:35;;;;;;;0.30;0.20;;;23.90;99.90;;;;;;5051270;28;20029;-76
2022/06/12 08:11:01;;;;;;;0.00;0.00;;;24.00;99.90;;;;;;5018904;28;20060;-76
2022/06/12 08:13:28;;;;;;;0.28;0.20;;;24.80;99.90;;;;;;5041799;28;20516;-78
2022/06/12 08:15:55;;;;;;;0.10;0.10;;;24.20;99.90;;;;;;5046544;28;20032;-77
2022/06/12 08:18:21;;;;;;;0.10;0.10;;;25.20;99.90;;;;;;5031557;28;20033;-75
2022/06/12 08:20:55;;;;;;;0.10;0.10;;;24.70;99.90;;;;;;5043127;28;20030;-75
2022/06/12 08:23:29;;;;;;;0.10;0.10;;;25.50;99.90;;;;;;5043529;28;20096;-75
2022/06/12 08:26:09;;;;;;;0.10;0.10;;;24.90;99.90;;;;;;5044003;28;20021;-75
2022/06/12 08:29:00;;;;;;;0.00;0.00;;;25.40;99.90;;;;;;5040392;28;20052;-76
2022/06/12 08:31:40;;;;;;;0.20;0.10;;;25.10;97.00;;;;;;5045092;28;20030;-76
2022/06/12 08:34:10;;;;;;;0.10;0.10;;;25.10;99.90;;;;;;5042683;28;20017;-74
2022/06/12 08:36:37;;;;;;;2.00;0.43;;;25.00;99.90;;;;;;5048564;28;20029;-74
2022/06/12 08:39:04;;;;;;;0.10;0.10;;;25.70;99.90;;;;;;5014335;28;20048;-74
2022/06/12 08:41:54;;;;;;;0.22;0.10;;;25.50;97.10;;;;;;5044034;28;20025;-73
2022/06/12 08:44:37;;;;;;;0.13;0.10;;;24.50;98.00;;;;;;5049053;28;20032;-76
2022/06/12 08:47:34;;;;;;;0.05;0.05;;;24.50;99.90;;;;;;5044866;28;20040;-75
2022/06/12 08:50:09;;;;;;;0.10;0.10;;;25.30;99.90;;;;;;5043725;28;20047;-74
2022/06/12 08:53:06;;;;;;;0.15;0.10;;;26.10;99.20;;;;;;5042042;28;20037;-73
2022/06/12 08:55:50;;;;;;;0.00;0.00;;;27.20;96.50;;;;;;5042832;28;20049;-74
2022/06/12 08:58:47;;;;;;;0.00;0.00;;;27.40;85.40;;;;;;5045654;28;20033;-73
2022/06/12 09:01:13;;;;;;;0.10;0.10;;;26.50;91.00;;;;;;5043313;28;20025;-74
2022/06/12 09:03:45;;;;;;;0.28;0.10;;;25.20;76.30;;;;;;5044672;28;20118;-76
2022/06/12 09:06:22;;;;;;;0.08;0.00;;;24.90;89.20;;;;;;5055595;28;20036;-75
2022/06/12 09:08:52;;;;;;;0.20;0.10;;;25.60;98.20;;;;;;5039479;28;20033;-77
2022/06/12 09:11:29;;;;;;;0.10;0.10;;;25.90;94.00;;;;;;5045527;28;20032;-76
2022/06/12 09:14:07;;;;;;;0.10;0.10;;;25.90;80.70;;;;;;5051429;28;20029;-77
2022/06/12 09:16:48;;;;;;;0.08;0.03;;;26.00;74.90;;;;;;5043851;28;20036;-76
2022/06/12 09:19:32;;;;;;;1.33;0.55;;;25.80;73.40;;;;;;5044411;28;20454;-76
2022/06/12 09:22:16;;;;;;;0.10;0.10;;;25.20;93.10;;;;;;5046537;28;20029;-87
2022/06/12 09:25:15;;;;;;;0.00;0.00;;;26.20;90.90;;;;;;5042350;28;20147;-89
2022/06/12 09:27:47;;;;;;;0.00;0.00;;;26.10;72.30;;;;;;5040318;28;20037;-87
2022/06/12 09:30:23;;;;;;;0.52;0.20;;;25.90;66.20;;;;;;5045488;28;20059;-84
2022/06/12 09:33:32;;;;;;;0.10;0.10;;;26.00;64.80;;;;;;5043908;28;20025;-84
2022/06/12 09:36:10;;;;;;;0.17;0.10;;;25.60;58.50;;;;;;5035033;28;20075;-75
2022/06/12 09:38:38;;;;;;;0.10;0.10;;;26.10;62.50;;;;;;5044646;28;20033;-75
2022/06/12 09:41:12;;;;;;;0.15;0.15;;;26.30;61.10;;;;;;5048121;28;20442;-75
2022/06/12 09:43:41;;;;;;;0.52;0.30;;;26.10;60.40;;;;;;5043716;28;20062;-76
2022/06/12 09:46:18;;;;;;;0.40;0.30;;;25.50;61.00;;;;;;5042449;28;20085;-77
2022/06/12 09:49:17;;;;;;;0.00;0.00;;;24.50;65.70;;;;;;5047267;28;20467;-75
2022/06/12 09:51:59;;;;;;;0.52;0.50;;;24.20;72.60;;;;;;5041052;28;20025;-76
2022/06/12 09:55:10;;;;;;;0.05;0.05;;;24.10;84.20;;;;;;5055651;28;20035;-78
2022/06/12 09:57:59;;;;;;;0.55;0.40;;;23.80;87.20;;;;;;5062503;28;20033;-76
2022/06/12 10:00:41;;;;;;;0.30;0.10;;;23.80;90.40;;;;;;5041204;28;20068;-78
2022/06/12 10:03:07;;;;;;;0.10;0.10;;;23.70;89.90;;;;;;5043397;28;20021;-78
2022/06/12 10:06:05;;;;;;;0.25;0.25;;;24.30;90.20;;;;;;5054639;28;20026;-76
2022/06/12 10:08:41;;;;;;;0.10;0.10;;;25.00;78.60;;;;;;5029928;28;20572;-75
2022/06/12 10:11:28;;;;;;;0.10;0.10;;;24.10;65.80;;;;;;5041822;28;20037;-72
2022/06/12 10:14:00;;;;;;;0.20;0.10;;;24.40;67.30;;;;;;5039141;28;20034;-72
2022/06/12 10:16:33;;;;;;;0.45;0.35;;;25.10;69.80;;;;;;5038049;28;20052;-74
2022/06/12 10:19:14;;;;;;;0.10;0.10;;;25.40;62.40;;;;;;5045713;28;20057;-73
2022/06/12 10:21:44;;;;;;;0.10;0.10;;;25.30;60.20;;;;;;5056180;28;20029;-73
2022/06/12 10:24:11;;;;;;;0.20;0.10;;;24.50;62.40;;;;;;5056439;28;20033;-73
2022/06/12 10:26:37;;;;;;;0.08;0.03;;;24.90;59.20;;;;;;5041138;28;20099;-74
2022/06/12 10:29:14;;;;;;;0.00;0.00;;;24.60;59.30;;;;;;5036584;28;20576;-71
2022/06/12 10:31:57;;;;;;;0.20;0.10;;;24.70;60.80;;;;;;5044382;28;20629;-70
2022/06/12 10:34:28;;;;;;;0.10;0.10;;;24.60;61.70;;;;;;5058065;28;20025;-72
2022/06/12 10:36:54;;;;;;;;;;;24.90;62.00;;;;;;5044626;28;20030;-70
2022/06/12 10:39:23;;;;;;;0.20;0.10;;;24.50;62.80;;;;;;5046904;28;19920;-71
2022/06/12 10:41:56;;;;;;;0.10;0.10;;;25.10;63.20;;;;;;5044088;28;20025;-81
2022/06/12 10:44:44;;;;;;;0.00;0.00;;;25.90;67.00;;;;;;5049107;28;20051;-86
2022/06/12 10:47:20;;;;;;;0.03;0.03;;;26.10;59.50;;;;;;5052405;28;20052;-81
2022/06/12 10:49:47;;;;;;;0.00;0.00;;;25.70;58.10;;;;;;5051675;28;20018;-78
2022/06/12 10:52:20;;;;;;;0.17;0.10;;;25.50;59.50;;;;;;5029591;28;20070;-78
2022/06/12 10:54:48;;;;;;;0.17;0.10;;;25.50;56.80;;;;;;5042024;28;20076;-75
2022/06/12 10:57:43;;;;;;;0.00;0.00;;;25.70;55.60;;;;;;5037042;28;20009;-78
2022/06/12 11:00:19;;;;;;;0.05;0.05;;;25.90;56.10;;;;;;5041909;28;20040;-73
2022/06/12 11:02:50;;;;;;;0.00;0.00;;;25.60;59.10;;;;;;5061531;28;20018;-76
2022/06/12 11:05:42;;;;;;;0.20;0.10;;;25.70;56.30;;;;;;5039938;28;20034;-75
2022/06/12 11:08:17;;;;;;;1.08;0.32;;;25.50;58.50;;;;;;5043577;28;20056;-76
2022/06/12 11:10:43;;;;;;;0.00;0.00;;;25.00;56.70;;;;;;5046575;28;20040;-76
2022/06/12 11:13:46;;;;;;;0.00;0.00;;;25.40;58.20;;;;;;5040234;28;20021;-77
2022/06/12 11:16:42;;;;;;;0.00;0.00;;;25.60;60.10;;;;;;5046170;28;20063;-76
2022/06/12 11:19:30;;;;;;;0.00;0.00;;;25.60;54.60;;;;;;5036080;28;20036;-77
2022/06/12 11:22:29;;;;;;;0.00;0.00;;;25.50;57.50;;;;;;5043493;28;20034;-77
2022/06/12 11:25:13;;;;;;;0.85;0.15;;;25.30;54.80;;;;;;5040145;28;20025;-75
2022/06/12 11:27:57;;;;;;;0.10;0.10;;;25.70;55.50;;;;;;5043054;28;20031;-75
2022/06/12 11:30:43;;;;;;;0.00;0.00;;;25.50;56.20;;;;;;5058265;28;20042;-76
2022/06/12 11:33:46;;;;;;;0.00;0.00;;;25.50;56.50;;;;;;5043218;28;20135;-77
2022/06/12 11:36:32;;;;;;;0.00;0.00;;;25.70;57.20;;;;;;5049888;28;20573;-76
2022/06/12 11:39:06;;;;;;;0.00;0.00;;;26.10;58.60;;;;;;5048552;28;20057;-76
2022/06/12 11:42:07;;;;;;;0.10;0.10;;;26.30;56.90;;;;;;5041061;28;20051;-76
2022/06/12 11:44:49;;;;;;;0.10;0.10;;;26.30;56.70;;;;;;5037472;28;20109;-77
2022/06/12 11:47:42;;;;;;;0.00;0.00;;;26.70;58.30;;;;;;5046067;28;20029;-76
2022/06/12 11:50:26;;;;;;;0.00;0.00;;;26.40;54.80;;;;;;5047141;28;20060;-76
2022/06/12 11:53:18;;;;;;;0.30;0.13;;;27.00;55.30;;;;;;5054672;28;20100;-76
2022/06/12 11:56:00;;;;;;;0.35;0.22;;;27.40;52.40;;;;;;5051094;28;20040;-76
2022/06/12 11:58:55;;;;;;;0.00;0.00;;;27.70;54.20;;;;;;5044407;28;20021;-76
2022/06/12 12:01:31;;;;;;;0.10;0.10;;;27.50;55.90;;;;;;5047019;28;20030;-76
2022/06/12 12:04:10;;;;;;;0.00;0.00;;;26.60;52.00;;;;;;5046325;28;20116;-74
2022/06/12 12:06:58;;;;;;;0.38;0.10;;;26.50;52.40;;;;;;5048505;28;20053;-75
2022/06/12 12:09:45;;;;;;;0.00;0.00;;;26.40;52.60;;;;;;5044348;28;20041;-76
2022/06/12 12:12:27;;;;;;;0.00;0.00;;;26.40;53.40;;;;;;5053523;28;20035;-73
2022/06/12 12:14:57;;;;;;;0.00;0.00;;;26.40;53.20;;;;;;5047797;28;20084;-74
2022/06/12 12:17:29;;;;;;;0.10;0.10;;;26.70;53.70;;;;;;5046724;28;20029;-74
2022/06/12 12:19:57;;;;;;;0.00;0.00;;;26.80;55.80;;;;;;5042367;28;20037;-76
2022/06/12 12:22:47;;;;;;;0.00;0.00;;;26.30;52.60;;;;;;5046104;28;20103;-73
2022/06/12 12:25:24;;;;;;;0.00;0.00;;;26.00;55.10;;;;;;5043920;28;20481;-75
2022/06/12 12:27:53;;;;;;;0.38;0.10;;;25.40;54.40;;;;;;5053060;28;20078;-75
2022/06/12 12:30:26;;;;;;;0.22;0.10;;;25.60;56.40;;;;;;5044101;28;20064;-76
2022/06/12 12:32:55;;;;;;;0.10;0.05;;;25.20;56.00;;;;;;5052740;28;20087;-75
2022/06/12 12:41:12;;;;;;;0.20;0.15;;;25.80;55.50;;;;;;5047804;28;20056;-71
2022/06/12 12:43:55;;;;;;;0.10;0.10;;;25.80;58.20;;;;;;5047978;28;20498;-74
2022/06/12 12:46:23;;;;;;;0.10;0.10;;;25.40;57.30;;;;;;5043172;28;20037;-71
2022/06/12 12:48:53;;;;;;;0.00;0.00;;;25.60;56.50;;;;;;5042907;28;20394;-71
2022/06/12 12:51:35;;;;;;;0.10;0.10;;;25.90;58.50;;;;;;5053697;28;20041;-70
2022/06/12 12:54:16;;;;;;;0.10;0.10;;;25.90;58.30;;;;;;5042669;28;20032;-66
2022/06/12 12:57:01;;;;;;;0.00;0.00;;;25.60;56.80;;;;;;5044612;28;20098;-68
2022/06/12 12:59:49;;;;;;;0.00;0.00;;;25.10;58.60;;;;;;5049266;28;20045;-68
2022/06/12 13:02:21;;;;;;;0.00;0.00;;;24.70;59.60;;;;;;5043612;28;20045;-69
2022/06/12 13:04:47;;;;;;;0.00;0.00;;;25.30;63.90;;;;;;5048822;28;20060;-68
2022/06/12 13:07:49;;;;;;;0.00;0.00;;;25.20;60.40;;;;;;5044795;28;20052;-69
2022/06/12 13:10:37;;;;;;;0.20;0.10;;;25.20;59.90;;;;;;5052627;28;20021;-67
2022/06/12 13:13:22;;;;;;;0.05;0.05;;;25.40;60.00;;;;;;5043379;28;20096;-67
2022/06/12 13:16:23;;;;;;;0.38;0.20;;;25.60;58.10;;;;;;5041130;28;20051;-67
2022/06/12 13:19:01;;;;;;;0.00;0.00;;;24.90;58.10;;;;;;5032235;28;20084;-67
2022/06/12 13:21:55;;;;;;;0.10;0.10;;;25.30;60.90;;;;;;5041305;28;20033;-67
2022/06/12 13:24:29;;;;;;;0.68;0.40;;;25.20;58.80;;;;;;5037903;28;20091;-68
2022/06/12 13:26:56;;;;;;;0.25;0.20;;;25.50;59.80;;;;;;5037992;28;20093;-67
2022/06/12 13:29:23;;;;;;;0.10;0.10;;;25.70;60.90;;;;;;5001595;28;1117672;-68
2022/06/12 13:32:02;;;;;;;0.10;0.10;;;25.50;57.40;;;;;;5044619;28;20024;-67
2022/06/12 13:34:33;;;;;;;0.00;0.00;;;25.60;58.00;;;;;;5043166;28;20025;-67
2022/06/12 13:37:00;;;;;;;0.10;0.10;;;25.70;58.50;;;;;;5035486;28;20040;-68
2022/06/12 13:39:29;;;;;;;0.08;0.00;;;25.60;57.80;;;;;;5040656;28;20100;-67
2022/06/12 13:42:08;;;;;;;0.00;0.00;;;25.40;57.50;;;;;;5038312;28;20032;-68
2022/06/12 13:44:40;;;;;;;0.03;0.00;;;25.30;58.60;;;;;;5039672;28;20119;-69